createdAt,value
2018-04-12T00:00:06.499Z,11.80
2018-04-12T00:02:34.745Z,11.90
2018-04-12T00:05:02.214Z,11.90
2018-04-12T00:07:29.693Z,12.00
2018-04-12T00:09:57.933Z,12.00
2018-04-12T00:12:25.415Z,11.90
2018-04-12T00:14:52.883Z,11.80
2018-04-12T00:17:21.307Z,11.80
2018-04-12T00:19:48.789Z,11.80
2018-04-12T00:22:16.261Z,11.70
2018-04-12T00:24:43.742Z,11.70
2018-04-12T00:27:11.976Z,11.80
2018-04-12T00:29:39.440Z,11.80
2018-04-12T00:32:06.906Z,11.80
2018-04-12T00:34:34.391Z,11.80
2018-04-12T00:37:02.620Z,11.80
2018-04-12T00:39:30.106Z,11.80
2018-04-12T00:41:57.572Z,11.70
2018-04-12T00:44:25.820Z,11.70
2018-04-12T00:46:53.296Z,11.60
2018-04-12T00:49:20.759Z,11.50
2018-04-12T00:51:48.229Z,11.50
2018-04-12T00:54:16.473Z,11.60
2018-04-12T00:56:43.975Z,11.50
2018-04-12T00:59:11.422Z,11.50
2018-04-12T01:01:39.659Z,11.40
2018-04-12T01:04:07.135Z,11.50
2018-04-12T01:06:34.610Z,11.50
2018-04-12T01:09:02.102Z,11.50
2018-04-12T01:11:29.572Z,11.50
2018-04-12T01:13:57.044Z,11.40
2018-04-12T01:16:24.521Z,11.40
2018-04-12T01:18:51.997Z,11.30
2018-04-12T01:21:19.465Z,11.40
2018-04-12T01:23:46.938Z,11.40
2018-04-12T01:26:15.164Z,11.40
2018-04-12T01:28:42.641Z,11.40
2018-04-12T01:31:10.118Z,11.40
2018-04-12T01:33:38.355Z,11.30
2018-04-12T01:36:05.825Z,11.30
2018-04-12T01:38:33.301Z,11.40
2018-04-12T01:41:00.764Z,11.30
2018-04-12T01:43:28.231Z,11.40
2018-04-12T01:45:56.463Z,11.30
2018-04-12T01:48:23.932Z,11.30
2018-04-12T01:50:51.398Z,11.30
2018-04-12T01:53:18.883Z,11.30
2018-04-12T01:55:47.107Z,11.20
2018-04-12T01:58:14.587Z,11.20
2018-04-12T02:00:42.043Z,11.10
2018-04-12T02:03:09.538Z,11.10
2018-04-12T02:05:37.798Z,11.10
2018-04-12T02:08:05.268Z,11.00
2018-04-12T02:10:33.504Z,11.00
2018-04-12T02:13:00.986Z,11.00
2018-04-12T02:15:28.460Z,11.10
2018-04-12T02:17:56.694Z,11.10
2018-04-12T02:20:24.160Z,11.10
2018-04-12T02:22:51.673Z,11.00
2018-04-12T02:25:19.113Z,11.00
2018-04-12T02:27:47.340Z,11.00
2018-04-12T02:30:14.821Z,10.90
2018-04-12T02:32:42.285Z,11.00
2018-04-12T02:35:09.771Z,11.00
2018-04-12T02:37:38.001Z,11.00
2018-04-12T02:40:05.477Z,11.00
2018-04-12T02:42:32.952Z,11.00
2018-04-12T02:45:01.206Z,11.00
2018-04-12T02:47:28.694Z,11.00
2018-04-12T02:49:56.958Z,11.00
2018-04-12T02:52:24.431Z,11.00
2018-04-12T02:54:52.684Z,11.00
2018-04-12T02:57:20.153Z,11.00
2018-04-12T02:59:47.629Z,11.00
2018-04-12T03:02:15.873Z,11.00
2018-04-12T03:04:43.357Z,11.00
2018-04-12T03:07:11.606Z,10.90
2018-04-12T03:09:39.090Z,10.90
2018-04-12T03:12:06.560Z,10.90
2018-04-12T03:14:34.802Z,10.80
2018-04-12T03:17:02.270Z,10.80
2018-04-12T03:19:29.754Z,10.80
2018-04-12T03:21:57.994Z,10.80
2018-04-12T03:24:25.501Z,10.70
2018-04-12T03:26:53.727Z,10.70
2018-04-12T03:29:21.214Z,10.70
2018-04-12T03:31:49.484Z,10.60
2018-04-12T03:34:16.944Z,10.60
2018-04-12T03:36:45.185Z,10.60
2018-04-12T03:39:12.668Z,10.60
2018-04-12T03:41:40.151Z,10.70
2018-04-12T03:44:08.398Z,10.70
2018-04-12T03:46:35.873Z,10.70
2018-04-12T03:49:04.151Z,10.70
2018-04-12T03:51:31.627Z,10.70
2018-04-12T03:53:59.910Z,10.70
2018-04-12T03:56:27.386Z,10.70
2018-04-12T03:58:54.874Z,10.70
2018-04-12T04:01:22.334Z,10.70
2018-04-12T04:03:49.817Z,10.70
2018-04-12T04:06:17.311Z,10.80
2018-04-12T04:08:44.794Z,10.70
2018-04-12T04:11:12.269Z,10.70
2018-04-12T04:13:39.751Z,10.70
2018-04-12T04:16:19.015Z,10.70
2018-04-12T04:18:58.369Z,10.70
2018-04-12T04:21:25.849Z,10.70
2018-04-12T04:23:53.332Z,10.70
2018-04-12T04:26:20.802Z,10.70
2018-04-12T04:28:49.407Z,10.70
2018-04-12T04:31:17.638Z,10.70
2018-04-12T04:33:45.109Z,10.70
2018-04-12T04:36:12.610Z,10.70
2018-04-12T04:38:40.086Z,10.70
2018-04-12T04:41:07.566Z,10.70
2018-04-12T04:43:35.045Z,10.70
2018-04-12T04:46:02.539Z,10.70
2018-04-12T04:48:30.033Z,10.70
2018-04-12T04:50:57.520Z,10.70
2018-04-12T04:53:25.002Z,10.70
2018-04-12T04:55:53.251Z,10.70
2018-04-12T04:58:20.734Z,10.70
2018-04-12T05:00:48.989Z,10.70
2018-04-12T05:03:16.478Z,10.70
2018-04-12T05:05:44.727Z,10.70
2018-04-12T05:08:12.206Z,10.70
2018-04-12T05:10:40.455Z,10.70
2018-04-12T05:13:07.926Z,10.70
2018-04-12T05:15:35.472Z,10.70
2018-04-12T05:18:02.882Z,10.70
2018-04-12T05:20:30.361Z,10.80
2018-04-12T05:22:57.832Z,10.80
2018-04-12T05:25:25.318Z,10.80
2018-04-12T05:27:52.830Z,10.80
2018-04-12T05:30:21.051Z,10.90
2018-04-12T05:32:48.536Z,10.90
2018-04-12T05:35:16.782Z,11.00
2018-04-12T05:37:44.279Z,11.00
2018-04-12T05:40:11.766Z,11.10
2018-04-12T05:42:39.254Z,11.10
2018-04-12T05:45:06.726Z,11.00
2018-04-12T05:47:34.203Z,11.10
2018-04-12T05:50:02.459Z,11.10
2018-04-12T05:52:29.930Z,11.10
2018-04-12T05:54:58.181Z,11.10
2018-04-12T05:57:25.658Z,11.10
2018-04-12T05:59:53.906Z,11.20
2018-04-12T06:02:21.382Z,11.10
2018-04-12T06:04:48.882Z,11.20
2018-04-12T06:07:16.363Z,11.10
2018-04-12T06:09:43.851Z,11.10
2018-04-12T06:12:11.330Z,11.10
2018-04-12T06:14:39.600Z,11.10
2018-04-12T06:17:07.070Z,11.10
2018-04-12T06:19:35.318Z,11.00
2018-04-12T06:22:02.811Z,11.00
2018-04-12T06:24:31.058Z,11.10
2018-04-12T06:26:58.535Z,11.10
2018-04-12T06:29:26.018Z,11.10
2018-04-12T06:31:53.499Z,11.20
2018-04-12T06:34:20.963Z,11.20
2018-04-12T06:36:48.446Z,11.30
2018-04-12T06:39:15.922Z,11.30
2018-04-12T06:41:43.408Z,11.30
2018-04-12T06:44:11.644Z,11.30
2018-04-12T06:46:39.132Z,11.30
2018-04-12T06:49:07.371Z,11.30
2018-04-12T06:51:34.857Z,11.30
2018-04-12T06:54:02.369Z,11.30
2018-04-12T06:56:30.569Z,11.30
2018-04-12T06:58:58.048Z,11.30
2018-04-12T07:01:25.527Z,11.40
2018-04-12T07:03:53.001Z,11.40
2018-04-12T07:06:20.478Z,11.40
2018-04-12T07:08:47.958Z,11.40
2018-04-12T07:11:15.433Z,11.40
2018-04-12T07:13:42.915Z,11.40
2018-04-12T07:16:11.163Z,11.50
2018-04-12T07:18:38.633Z,11.50
2018-04-12T07:21:06.882Z,11.60
2018-04-12T07:23:34.350Z,11.60
2018-04-12T07:26:01.844Z,11.50
2018-04-12T07:28:29.459Z,11.50
2018-04-12T07:30:56.933Z,11.50
2018-04-12T07:33:24.407Z,11.50
2018-04-12T07:35:52.671Z,11.50
2018-04-12T07:38:20.145Z,11.50
2018-04-12T07:40:48.394Z,11.50
2018-04-12T07:43:15.874Z,11.50
2018-04-12T07:45:43.362Z,11.60
2018-04-12T07:48:10.870Z,11.60
2018-04-12T07:50:38.360Z,11.60
2018-04-12T07:53:06.671Z,11.60
2018-04-12T07:55:34.167Z,11.60
2018-04-12T07:58:02.450Z,11.70
2018-04-12T08:00:29.935Z,11.70
2018-04-12T08:02:58.173Z,11.90
2018-04-12T08:05:25.658Z,11.90
2018-04-12T08:07:53.136Z,11.90
2018-04-12T08:10:21.389Z,12.00
2018-04-12T08:12:48.881Z,12.00
2018-04-12T08:15:16.383Z,11.90
2018-04-12T08:17:43.859Z,11.90
2018-04-12T08:20:11.342Z,12.00
2018-04-12T08:22:39.582Z,12.20
2018-04-12T08:25:07.067Z,12.20
2018-04-12T08:27:34.543Z,12.20
2018-04-12T08:30:02.804Z,12.30
2018-04-12T08:32:30.281Z,12.30
2018-04-12T08:34:58.515Z,12.20
2018-04-12T08:37:26.003Z,12.20
2018-04-12T08:39:54.241Z,12.30
2018-04-12T08:42:22.394Z,12.30
2018-04-12T08:44:49.874Z,12.30
2018-04-12T08:47:17.421Z,12.40
2018-04-12T08:49:44.945Z,12.50
2018-04-12T08:52:13.190Z,12.50
2018-04-12T08:54:40.660Z,12.50
2018-04-12T08:57:08.997Z,12.50
2018-04-12T08:59:36.463Z,12.40
2018-04-12T09:02:03.951Z,12.50
2018-04-12T09:04:31.427Z,12.50
2018-04-12T09:06:59.931Z,12.40
2018-04-12T09:09:27.403Z,12.40
2018-04-12T09:11:54.886Z,12.50
2018-04-12T09:14:22.362Z,12.50
2018-04-12T09:16:49.845Z,12.50
2018-04-12T09:19:18.082Z,12.30
2018-04-12T09:21:45.658Z,12.30
2018-04-12T09:24:13.131Z,12.40
2018-04-12T09:26:41.384Z,12.40
2018-04-12T09:29:08.849Z,12.40
2018-04-12T09:31:36.335Z,12.40
2018-04-12T09:34:04.570Z,12.50
2018-04-12T09:36:32.041Z,12.50
2018-04-12T09:38:59.517Z,12.60
2018-04-12T09:41:27.770Z,12.80
2018-04-12T09:43:55.238Z,12.80
2018-04-12T09:46:22.761Z,12.90
2018-04-12T09:48:50.236Z,13.00
2018-04-12T09:51:17.955Z,13.10
2018-04-12T09:53:45.430Z,13.00
2018-04-12T09:56:12.914Z,13.10
2018-04-12T09:58:40.389Z,13.10
2018-04-12T10:01:13.482Z,13.20
2018-04-12T10:03:43.902Z,13.30
2018-04-12T10:06:11.846Z,13.30
2018-04-12T10:08:43.283Z,13.40
2018-04-12T10:11:10.766Z,13.40
2018-04-12T10:13:38.233Z,13.50
2018-04-12T10:16:05.715Z,13.50
2018-04-12T10:18:34.111Z,13.50
2018-04-12T10:21:02.362Z,13.40
2018-04-12T10:23:29.886Z,13.40
2018-04-12T10:25:57.370Z,13.50
2018-04-12T10:28:24.846Z,13.50
2018-04-12T10:30:52.342Z,13.70
2018-04-12T10:33:19.815Z,13.70
2018-04-12T10:35:47.299Z,13.80
2018-04-12T10:38:14.779Z,13.80
2018-04-12T10:40:42.263Z,13.90
2018-04-12T10:43:10.498Z,14.10
2018-04-12T10:45:37.985Z,14.10
2018-04-12T10:48:06.238Z,14.20
2018-04-12T10:50:34.880Z,14.10
2018-04-12T10:53:02.366Z,14.20
2018-04-12T10:55:29.831Z,14.40
2018-04-12T10:57:57.361Z,14.50
2018-04-12T11:00:24.840Z,14.70
2018-04-12T11:02:52.338Z,14.90
2018-04-12T11:05:19.817Z,15.10
2018-04-12T11:07:47.305Z,15.20
2018-04-12T11:10:14.791Z,15.20
2018-04-12T11:12:42.311Z,15.30
2018-04-12T11:15:09.782Z,15.50
2018-04-12T11:17:38.052Z,15.50
2018-04-12T11:20:05.581Z,15.70
2018-04-12T11:22:33.089Z,15.70
2018-04-12T11:25:00.566Z,15.80
2018-04-12T11:27:28.040Z,15.90
2018-04-12T11:29:55.529Z,16.00
2018-04-12T11:32:23.773Z,16.30
2018-04-12T11:34:51.272Z,16.30
2018-04-12T11:37:18.824Z,16.60
2018-04-12T11:39:46.436Z,16.80
2018-04-12T11:42:13.915Z,17.00
2018-04-12T11:44:42.170Z,17.00
2018-04-12T11:47:09.693Z,17.00
2018-04-12T11:49:37.179Z,17.00
2018-04-12T11:52:04.751Z,16.90
2018-04-12T11:54:32.336Z,17.10
2018-04-12T11:56:59.823Z,17.10
2018-04-12T11:59:28.060Z,17.20
2018-04-12T12:01:55.558Z,17.20
2018-04-12T12:04:23.818Z,17.60
2018-04-12T12:06:52.070Z,17.80
2018-04-12T12:09:19.542Z,17.80
2018-04-12T12:11:47.028Z,17.80
2018-04-12T12:14:15.283Z,18.20
2018-04-12T12:16:42.762Z,18.20
2018-04-12T12:19:11.036Z,18.40
2018-04-12T12:21:39.328Z,18.60
2018-04-12T12:24:06.840Z,18.60
2018-04-12T12:26:34.329Z,18.70
2018-04-12T12:29:02.805Z,19.00
2018-04-12T12:31:31.574Z,19.10
2018-04-12T12:33:59.069Z,19.10
2018-04-12T12:36:27.316Z,19.10
2018-04-12T12:38:54.998Z,19.10
2018-04-12T12:41:22.503Z,19.30
2018-04-12T12:43:50.936Z,19.60
2018-04-12T12:46:18.399Z,19.60
2018-04-12T12:48:46.791Z,20.00
2018-04-12T12:51:14.304Z,19.90
2018-04-12T12:53:41.895Z,20.10
2018-04-12T12:56:10.878Z,20.30
2018-04-12T12:58:38.367Z,20.30
2018-04-12T13:01:05.851Z,20.40
2018-04-12T13:03:33.350Z,20.50
2018-04-12T13:06:00.838Z,20.60
2018-04-12T13:08:28.317Z,20.60
2018-04-12T13:10:55.799Z,20.70
2018-04-12T13:13:23.361Z,20.90
2018-04-12T13:15:50.835Z,20.80
2018-04-12T13:18:18.323Z,20.80
2018-04-12T13:20:46.575Z,20.70
2018-04-12T13:23:14.056Z,20.70
2018-04-12T13:25:42.323Z,20.80
2018-04-12T13:28:09.839Z,20.80
2018-04-12T13:30:37.323Z,20.70
2018-04-12T13:33:04.858Z,20.70
2018-04-12T13:35:32.292Z,20.60
2018-04-12T13:37:59.782Z,20.60
2018-04-12T13:40:28.028Z,20.80
2018-04-12T13:42:55.517Z,20.80
2018-04-12T13:45:22.995Z,20.80
2018-04-12T13:47:50.507Z,20.80
2018-04-12T13:50:17.989Z,20.80
2018-04-12T13:52:47.286Z,21.00
2018-04-12T13:55:14.850Z,21.20
2018-04-12T13:57:42.306Z,21.50
2018-04-12T14:00:09.807Z,21.40
2018-04-12T14:02:37.304Z,21.30
2018-04-12T14:05:04.780Z,21.20
2018-04-12T14:07:32.268Z,21.10
2018-04-12T14:09:59.747Z,21.00
2018-04-12T14:12:27.239Z,21.00
2018-04-12T14:14:54.724Z,21.00
2018-04-12T14:17:22.215Z,21.10
2018-04-12T14:19:49.691Z,21.00
2018-04-12T14:22:17.933Z,21.20
2018-04-12T14:24:45.421Z,21.20
2018-04-12T14:27:12.924Z,21.20
2018-04-12T14:29:40.409Z,21.20
2018-04-12T14:32:07.928Z,21.10
2018-04-12T14:34:35.412Z,21.10
2018-04-12T14:37:02.895Z,21.20
2018-04-12T14:39:30.390Z,21.30
2018-04-12T14:41:58.641Z,21.40
2018-04-12T14:44:26.129Z,21.40
2018-04-12T14:46:54.377Z,21.50
2018-04-12T14:49:21.857Z,21.40
2018-04-12T14:51:50.099Z,21.40
2018-04-12T14:54:19.152Z,21.40
2018-04-12T14:56:45.838Z,21.40
2018-04-12T14:59:13.342Z,21.40
2018-04-12T15:01:40.822Z,21.40
2018-04-12T15:04:08.318Z,21.40
2018-04-12T15:06:35.811Z,21.40
2018-04-12T15:09:04.061Z,21.40
2018-04-12T15:11:31.564Z,21.40
2018-04-12T15:13:59.875Z,21.40
2018-04-12T15:16:27.345Z,21.40
2018-04-12T15:18:54.862Z,21.40
2018-04-12T15:21:23.133Z,21.40
2018-04-12T15:23:50.627Z,21.40
2018-04-12T15:26:18.102Z,21.50
2018-04-12T15:28:45.593Z,21.50
2018-04-12T15:31:13.836Z,21.40
2018-04-12T15:33:41.326Z,21.40
2018-04-12T15:36:09.585Z,21.50
2018-04-12T15:38:37.081Z,21.50
2018-04-12T15:41:04.556Z,21.50
2018-04-12T15:43:32.042Z,21.60
2018-04-12T15:45:59.561Z,21.60
2018-04-12T15:48:27.805Z,21.60
2018-04-12T15:50:55.290Z,21.60
2018-04-12T15:53:22.777Z,21.60
2018-04-12T15:55:50.278Z,21.60
2018-04-12T15:58:17.770Z,21.60
2018-04-12T16:00:45.944Z,21.70
2018-04-12T16:03:14.266Z,21.70
2018-04-12T16:05:41.752Z,21.70
2018-04-12T16:08:09.301Z,21.70
2018-04-12T16:10:36.810Z,21.70
2018-04-12T16:13:04.300Z,21.70
2018-04-12T16:15:31.791Z,21.70
2018-04-12T16:17:59.303Z,21.70
2018-04-12T16:20:26.786Z,21.60
2018-04-12T16:22:54.270Z,21.60
2018-04-12T16:25:21.769Z,21.60
2018-04-12T16:27:49.278Z,21.60
2018-04-12T16:30:17.264Z,21.60
2018-04-12T16:32:44.766Z,21.50
2018-04-12T16:35:12.245Z,21.50
2018-04-12T16:37:39.724Z,21.50
2018-04-12T16:40:07.226Z,21.40
2018-04-12T16:42:34.726Z,21.40
2018-04-12T16:45:02.732Z,21.40
2018-04-12T16:47:30.331Z,21.30
2018-04-12T16:49:57.828Z,21.30
2018-04-12T16:52:25.323Z,21.20
2018-04-12T16:54:53.621Z,21.00
2018-04-12T16:57:21.132Z,21.00
2018-04-12T16:59:48.627Z,21.00
2018-04-12T17:02:16.878Z,20.90
2018-04-12T17:04:44.367Z,20.90
2018-04-12T17:07:11.902Z,20.90
2018-04-12T17:09:39.406Z,20.80
2018-04-12T17:12:06.916Z,20.70
2018-04-12T17:14:34.386Z,20.70
2018-04-12T17:17:02.629Z,20.50
2018-04-12T17:19:30.116Z,20.50
2018-04-12T17:21:57.590Z,20.50
2018-04-12T17:24:25.865Z,20.40
2018-04-12T17:26:54.110Z,20.30
2018-04-12T17:29:21.606Z,20.30
2018-04-12T17:31:49.849Z,20.20
2018-04-12T17:34:17.342Z,20.20
2018-04-12T17:36:45.638Z,19.90
2018-04-12T17:39:13.118Z,19.90
2018-04-12T17:41:40.623Z,19.70
2018-04-12T17:44:08.880Z,19.70
2018-04-12T17:46:36.353Z,19.70
2018-04-12T17:49:03.830Z,19.70
2018-04-12T17:51:32.114Z,19.70
2018-04-12T17:53:59.614Z,19.70
2018-04-12T17:56:27.112Z,19.70
2018-04-12T17:58:55.362Z,19.60
2018-04-12T18:01:22.845Z,19.60
2018-04-12T18:03:50.345Z,19.50
2018-04-12T18:06:17.826Z,19.40
2018-04-12T18:08:45.327Z,19.30
2018-04-12T18:11:12.845Z,19.30
2018-04-12T18:13:40.379Z,19.30
2018-04-12T18:16:08.613Z,19.10
2018-04-12T18:18:36.109Z,19.10
2018-04-12T18:21:03.648Z,19.00
2018-04-12T18:23:31.904Z,18.80
2018-04-12T18:25:59.436Z,18.80
2018-04-12T18:28:26.945Z,18.80
2018-04-12T18:30:55.209Z,18.60
2018-04-12T18:33:22.683Z,18.60
2018-04-12T18:35:50.941Z,18.50
2018-04-12T18:38:18.506Z,18.40
2018-04-12T18:40:46.032Z,18.30
2018-04-12T18:43:13.509Z,18.20
2018-04-12T18:45:41.050Z,18.20
2018-04-12T18:48:08.555Z,18.20
2018-04-12T18:50:37.651Z,18.10
2018-04-12T18:53:05.944Z,18.10
2018-04-12T18:55:33.450Z,18.00
2018-04-12T18:58:01.835Z,17.90
2018-04-12T19:00:29.423Z,17.90
2018-04-12T19:02:58.576Z,17.80
2018-04-12T19:05:26.439Z,17.80
2018-04-12T19:07:53.974Z,17.80
2018-04-12T19:10:21.624Z,17.80
2018-04-12T19:12:50.938Z,17.70
2018-04-12T19:15:18.497Z,17.70
2018-04-12T19:17:46.088Z,17.50
2018-04-12T19:20:13.816Z,17.30
2018-04-12T19:22:41.355Z,17.20
2018-04-12T19:25:08.851Z,17.10
2018-04-12T19:27:36.342Z,17.00
2018-04-12T19:30:05.689Z,17.00
2018-04-12T19:32:33.934Z,17.10
2018-04-12T19:35:01.455Z,17.10
2018-04-12T19:37:28.997Z,17.00
2018-04-12T19:39:56.496Z,17.00
2018-04-12T19:42:24.003Z,17.00
2018-04-12T19:44:52.276Z,16.80
2018-04-12T19:47:20.591Z,16.90
2018-04-12T19:49:48.154Z,16.80
2018-04-12T19:52:15.703Z,16.90
2018-04-12T19:54:43.335Z,16.80
2018-04-12T19:57:12.498Z,16.80
2018-04-12T19:59:40.140Z,16.80
2018-04-12T20:02:07.641Z,16.80
2018-04-12T20:04:35.122Z,16.70
2018-04-12T20:07:03.450Z,16.60
2018-04-12T20:09:31.021Z,16.60
2018-04-12T20:11:58.542Z,16.60
2018-04-12T20:14:26.062Z,16.60
2018-04-12T20:16:53.568Z,16.60
2018-04-12T20:19:21.046Z,16.50
2018-04-12T20:21:48.539Z,16.40
2018-04-12T20:24:16.811Z,16.20
2018-04-12T20:26:44.301Z,16.10
2018-04-12T20:29:12.634Z,16.30
2018-04-12T20:31:40.134Z,16.20
2018-04-12T20:34:08.386Z,16.20
2018-04-12T20:36:35.893Z,16.30
2018-04-12T20:39:03.540Z,16.30
2018-04-12T20:41:31.038Z,16.30
2018-04-12T20:43:58.621Z,16.40
2018-04-12T20:46:26.115Z,16.40
2018-04-12T20:48:54.360Z,16.20
2018-04-12T20:51:21.846Z,16.20
2018-04-12T20:53:50.098Z,16.20
2018-04-12T20:56:17.593Z,16.20
2018-04-12T20:58:45.078Z,16.20
2018-04-12T21:01:12.563Z,16.20
2018-04-12T21:03:40.040Z,16.20
2018-04-12T21:06:07.522Z,16.20
2018-04-12T21:08:35.769Z,15.90
2018-04-12T21:11:03.243Z,15.90
2018-04-12T21:13:31.534Z,15.80
2018-04-12T21:15:59.799Z,15.50
2018-04-12T21:18:28.042Z,15.40
2018-04-12T21:20:55.537Z,15.40
2018-04-12T21:23:23.007Z,15.50
2018-04-12T21:25:51.326Z,15.50
2018-04-12T21:28:18.806Z,15.40
2018-04-12T21:30:46.294Z,15.60
2018-04-12T21:33:14.529Z,15.70
2018-04-12T21:35:42.032Z,15.80
2018-04-12T21:38:10.271Z,15.70
2018-04-12T21:40:37.746Z,15.70
2018-04-12T21:43:05.230Z,15.80
2018-04-12T21:45:33.462Z,15.80
2018-04-12T21:48:00.942Z,15.80
2018-04-12T21:50:28.421Z,15.80
2018-04-12T21:52:56.681Z,15.90
2018-04-12T21:55:24.162Z,15.90
2018-04-12T21:57:52.433Z,16.10
2018-04-12T22:00:19.906Z,16.10
2018-04-12T22:02:48.151Z,16.00
2018-04-12T22:05:15.630Z,16.10
2018-04-12T22:07:43.880Z,16.10
2018-04-12T22:10:11.357Z,16.10
2018-04-12T22:12:39.606Z,15.90
2018-04-12T22:15:07.076Z,15.90
2018-04-12T22:17:34.592Z,16.00
2018-04-12T22:20:02.064Z,15.80
2018-04-12T22:22:29.561Z,15.80
2018-04-12T22:24:57.022Z,15.70
2018-04-12T22:27:25.286Z,15.80
2018-04-12T22:29:52.748Z,15.70
2018-04-12T22:32:20.231Z,15.80
2018-04-12T22:34:48.474Z,15.70
2018-04-12T22:37:15.962Z,15.70
2018-04-12T22:39:44.235Z,15.40
2018-04-12T22:42:12.494Z,15.40
2018-04-12T22:44:39.965Z,15.40
2018-04-12T22:47:08.223Z,15.50
2018-04-12T22:49:35.703Z,15.50
2018-04-12T22:52:03.190Z,15.50
2018-04-12T22:54:30.678Z,15.40
2018-04-12T22:56:58.181Z,15.40
2018-04-12T22:59:26.437Z,15.40
2018-04-12T23:01:53.926Z,15.40
2018-04-12T23:04:22.162Z,15.30
2018-04-12T23:06:49.646Z,15.30
2018-04-12T23:09:17.134Z,15.40
2018-04-12T23:11:44.895Z,15.30
2018-04-12T23:14:12.383Z,15.30
2018-04-12T23:16:40.683Z,15.10
2018-04-12T23:19:08.158Z,14.90
2018-04-12T23:21:35.625Z,14.80
2018-04-12T23:24:03.876Z,14.90
2018-04-12T23:26:32.130Z,15.00
2018-04-12T23:28:59.605Z,14.90
2018-04-12T23:31:27.095Z,14.90
2018-04-12T23:33:54.566Z,14.80
2018-04-12T23:36:22.814Z,14.80
2018-04-12T23:38:50.292Z,14.80
2018-04-12T23:41:17.787Z,14.80
2018-04-12T23:43:45.263Z,14.70
2018-04-12T23:46:12.759Z,14.60
2018-04-12T23:48:40.241Z,14.60
2018-04-12T23:51:08.487Z,14.60
2018-04-12T23:53:35.971Z,14.50
2018-04-12T23:56:04.205Z,14.60
2018-04-12T23:58:31.678Z,14.50
